createdAt,value
2023-01-11T00:00:44.461Z,9.59
2023-01-11T00:03:11.024Z,9.65
2023-01-11T00:05:38.979Z,9.61
2023-01-11T00:08:07.992Z,9.53
2023-01-11T00:10:35.100Z,9.58
2023-01-11T00:13:01.814Z,9.54
2023-01-11T00:15:28.468Z,9.60
2023-01-11T00:17:54.965Z,9.62
2023-01-11T00:20:21.524Z,9.64
2023-01-11T00:22:48.168Z,9.65
2023-01-11T00:25:14.674Z,9.62
2023-01-11T00:27:41.195Z,9.65
2023-01-11T00:30:08.059Z,9.69
2023-01-11T00:32:34.579Z,9.78
2023-01-11T00:35:01.196Z,9.74
2023-01-11T00:37:27.725Z,9.65
2023-01-11T00:39:54.269Z,9.60
2023-01-11T00:42:39.347Z,9.60
2023-01-11T00:45:24.923Z,9.66
2023-01-11T00:47:57.197Z,9.64
2023-01-11T00:50:24.682Z,9.69
2023-01-11T00:52:51.361Z,9.73
2023-01-11T00:55:17.856Z,9.72
2023-01-11T00:57:44.384Z,9.73
2023-01-11T01:00:11.244Z,9.80
2023-01-11T01:02:37.944Z,9.81
2023-01-11T01:05:04.700Z,9.79
2023-01-11T01:07:31.173Z,9.68
2023-01-11T01:09:57.942Z,9.69
2023-01-11T01:12:43.034Z,9.77
2023-01-11T01:15:09.977Z,9.66
2023-01-11T01:17:36.543Z,9.72
2023-01-11T01:20:03.474Z,9.75
2023-01-11T01:22:30.030Z,9.80
2023-01-11T01:24:56.572Z,9.83
2023-01-11T01:27:23.078Z,9.83
2023-01-11T01:29:49.716Z,9.72
2023-01-11T01:32:16.564Z,9.65
2023-01-11T01:34:43.124Z,9.72
2023-01-11T01:37:10.599Z,9.77
2023-01-11T01:39:37.125Z,9.82
2023-01-11T01:42:04.133Z,9.86
2023-01-11T01:44:48.976Z,9.88
2023-01-11T01:47:15.872Z,9.96
2023-01-11T01:49:43.471Z,9.95
2023-01-11T01:52:10.477Z,9.98
2023-01-11T01:54:39.480Z,9.99
2023-01-11T01:57:09.538Z,10.02
2023-01-11T01:59:36.286Z,9.95
2023-01-11T02:02:02.935Z,9.99
2023-01-11T02:04:35.617Z,9.95
2023-01-11T02:07:04.317Z,9.96
2023-01-11T02:09:49.536Z,9.89
2023-01-11T02:12:16.400Z,9.80
2023-01-11T02:14:43.757Z,9.79
2023-01-11T02:17:10.711Z,9.74
2023-01-11T02:19:44.454Z,9.76
2023-01-11T02:22:14.065Z,9.67
2023-01-11T02:24:44.330Z,9.74
2023-01-11T02:27:23.197Z,9.73
2023-01-11T02:29:49.699Z,9.66
2023-01-11T02:32:26.155Z,9.69
2023-01-11T02:34:58.685Z,9.77
2023-01-11T02:37:34.268Z,9.81
2023-01-11T02:40:21.247Z,9.74
2023-01-11T02:43:23.916Z,9.79
2023-01-11T02:45:54.339Z,9.82
2023-01-11T02:48:32.240Z,9.80
2023-01-11T02:51:07.762Z,9.81
2023-01-11T02:53:37.428Z,9.82
2023-01-11T02:56:07.313Z,9.77
2023-01-11T02:58:36.204Z,9.76
2023-01-11T03:01:03.976Z,9.80
2023-01-11T03:03:30.635Z,9.78
2023-01-11T03:06:03.143Z,9.74
2023-01-11T03:08:35.342Z,9.74
2023-01-11T03:11:10.186Z,9.75
2023-01-11T03:13:45.956Z,9.73
2023-01-11T03:16:24.523Z,9.82
2023-01-11T03:19:06.326Z,9.75
2023-01-11T03:21:48.886Z,9.77
2023-01-11T03:24:37.532Z,9.81
2023-01-11T03:27:30.500Z,9.82
2023-01-11T03:30:06.649Z,9.88
2023-01-11T03:32:47.200Z,9.89
2023-01-11T03:35:13.777Z,9.92
2023-01-11T03:38:00.511Z,9.85
2023-01-11T03:40:29.729Z,9.88
2023-01-11T03:43:10.843Z,9.94
2023-01-11T03:45:40.103Z,9.91
2023-01-11T03:48:09.919Z,9.91
2023-01-11T03:50:36.390Z,9.95
2023-01-11T03:53:06.165Z,9.95
2023-01-11T03:55:37.338Z,9.89
2023-01-11T03:58:04.059Z,9.85
2023-01-11T04:00:31.244Z,9.90
2023-01-11T04:02:59.521Z,9.87
2023-01-11T04:05:26.010Z,9.82
2023-01-11T04:07:53.120Z,9.77
2023-01-11T04:10:19.616Z,9.71
2023-01-11T04:12:47.748Z,9.77
2023-01-11T04:15:15.148Z,9.89
2023-01-11T04:17:42.088Z,10.04
2023-01-11T04:20:09.417Z,10.09
2023-01-11T04:22:36.233Z,10.00
2023-01-11T04:25:02.978Z,9.94
2023-01-11T04:27:29.540Z,9.82
2023-01-11T04:29:56.010Z,9.78
2023-01-11T04:32:22.516Z,9.90
2023-01-11T04:34:50.529Z,9.94
2023-01-11T04:37:17.367Z,10.04
2023-01-11T04:39:44.349Z,9.96
2023-01-11T04:42:21.621Z,9.98
2023-01-11T04:44:49.792Z,10.03
2023-01-11T04:47:17.049Z,10.01
2023-01-11T04:49:44.004Z,10.04
2023-01-11T04:52:11.729Z,10.03
2023-01-11T04:54:38.609Z,10.13
2023-01-11T04:57:05.951Z,10.19
2023-01-11T04:59:32.664Z,10.20
2023-01-11T05:01:59.881Z,10.23
2023-01-11T05:04:26.545Z,10.20
2023-01-11T05:06:53.389Z,10.29
2023-01-11T05:09:20.639Z,10.13
2023-01-11T05:11:47.375Z,10.18
2023-01-11T05:14:15.490Z,10.10
2023-01-11T05:16:42.621Z,10.11
2023-01-11T05:19:10.320Z,10.06
2023-01-11T05:21:39.273Z,10.10
2023-01-11T05:24:07.323Z,10.07
2023-01-11T05:26:35.082Z,10.06
2023-01-11T05:29:02.988Z,10.09
2023-01-11T05:31:31.297Z,10.10
2023-01-11T05:33:58.598Z,10.10
2023-01-11T05:36:26.930Z,10.09
2023-01-11T05:38:54.497Z,10.13
2023-01-11T05:41:21.888Z,10.09
2023-01-11T05:44:07.917Z,10.07
2023-01-11T05:46:35.229Z,10.00
2023-01-11T05:49:01.938Z,9.97
2023-01-11T05:51:32.820Z,10.04
2023-01-11T05:53:59.907Z,10.10
2023-01-11T05:56:27.377Z,10.04
2023-01-11T05:58:53.998Z,9.96
2023-01-11T06:01:21.878Z,9.88
2023-01-11T06:03:48.497Z,9.95
2023-01-11T06:06:16.158Z,10.09
2023-01-11T06:08:42.782Z,10.11
2023-01-11T06:11:09.472Z,10.13
2023-01-11T06:13:36.576Z,10.14
2023-01-11T06:16:07.997Z,10.12
2023-01-11T06:18:36.540Z,10.14
2023-01-11T06:21:04.213Z,10.16
2023-01-11T06:23:31.751Z,10.20
2023-01-11T06:26:02.593Z,10.17
2023-01-11T06:28:29.755Z,10.17
2023-01-11T06:30:57.343Z,10.24
2023-01-11T06:33:24.707Z,10.30
2023-01-11T06:35:51.977Z,10.26
2023-01-11T06:38:19.205Z,10.12
2023-01-11T06:40:51.676Z,10.18
2023-01-11T06:43:18.213Z,10.26
2023-01-11T06:45:44.854Z,10.33
2023-01-11T06:48:11.390Z,10.28
2023-01-11T06:50:38.055Z,10.32
2023-01-11T06:53:04.619Z,10.35
2023-01-11T06:55:31.972Z,10.40
2023-01-11T06:57:58.597Z,10.43
2023-01-11T07:00:25.268Z,10.32
2023-01-11T07:02:51.978Z,10.32
2023-01-11T07:05:19.479Z,10.41
2023-01-11T07:07:46.246Z,10.38
2023-01-11T07:10:14.140Z,10.48
2023-01-11T07:12:40.635Z,10.56
2023-01-11T07:15:08.458Z,10.53
2023-01-11T07:17:35.039Z,10.47
2023-01-11T07:20:01.913Z,10.53
2023-01-11T07:22:28.685Z,10.60
2023-01-11T07:24:55.358Z,10.58
2023-01-11T07:27:21.972Z,10.61
2023-01-11T07:29:48.564Z,10.65
2023-01-11T07:32:15.251Z,10.69
2023-01-11T07:34:41.747Z,10.69
2023-01-11T07:37:28.205Z,10.64
2023-01-11T07:39:55.758Z,10.67
2023-01-11T07:42:40.950Z,10.60
2023-01-11T07:45:07.816Z,10.67
2023-01-11T07:47:34.557Z,10.73
2023-01-11T07:50:01.149Z,10.69
2023-01-11T07:52:27.767Z,10.76
2023-01-11T07:54:54.329Z,10.71
2023-01-11T07:57:22.895Z,10.77
2023-01-11T07:59:49.463Z,10.82
2023-01-11T08:02:16.129Z,10.86
2023-01-11T08:04:42.927Z,10.75
2023-01-11T08:07:09.590Z,10.84
2023-01-11T08:09:36.149Z,10.75
2023-01-11T08:12:21.301Z,10.76
2023-01-11T08:14:47.752Z,10.74
2023-01-11T08:17:15.906Z,10.77
2023-01-11T08:19:43.180Z,10.72
2023-01-11T08:22:10.626Z,10.72
2023-01-11T08:24:37.255Z,10.61
2023-01-11T08:27:04.520Z,10.65
2023-01-11T08:29:31.348Z,10.76
2023-01-11T08:31:59.452Z,10.81
2023-01-11T08:34:28.970Z,10.86
2023-01-11T08:37:01.842Z,10.81
2023-01-11T08:39:31.061Z,10.74
2023-01-11T08:42:01.229Z,10.77
2023-01-11T08:44:35.234Z,10.80
2023-01-11T08:47:02.866Z,10.82
2023-01-11T08:49:30.816Z,10.85
2023-01-11T08:51:57.549Z,10.95
2023-01-11T08:54:25.119Z,10.90
2023-01-11T08:56:51.733Z,10.74
2023-01-11T08:59:19.836Z,10.82
2023-01-11T09:01:46.522Z,10.91
2023-01-11T09:04:24.216Z,10.83
2023-01-11T09:06:52.553Z,10.86
2023-01-11T09:09:19.053Z,10.86
2023-01-11T09:11:54.572Z,10.95
2023-01-11T09:14:21.970Z,10.93
2023-01-11T09:16:48.907Z,10.96
2023-01-11T09:19:15.524Z,10.93
2023-01-11T09:21:42.426Z,10.99
2023-01-11T09:24:09.098Z,11.05
2023-01-11T09:26:35.994Z,11.03
2023-01-11T09:29:02.622Z,10.97
2023-01-11T09:31:29.242Z,11.08
2023-01-11T09:33:55.747Z,11.08
2023-01-11T09:36:27.859Z,11.05
2023-01-11T09:38:57.438Z,11.12
2023-01-11T09:41:31.742Z,11.10
2023-01-11T09:44:15.918Z,11.12
2023-01-11T09:46:44.399Z,11.15
2023-01-11T09:49:16.247Z,11.14
2023-01-11T09:51:43.411Z,11.11
2023-01-11T09:54:15.920Z,11.17
2023-01-11T09:56:53.690Z,11.21
2023-01-11T09:59:46.693Z,11.17
2023-01-11T10:02:19.531Z,11.19
2023-01-11T10:05:06.273Z,11.24
2023-01-11T10:07:46.972Z,11.26
2023-01-11T10:18:28.388Z,11.21
2023-01-11T10:19:36.560Z,11.33
2023-01-11T10:22:09.582Z,11.33
2023-01-11T10:24:42.261Z,11.30
2023-01-11T10:27:38.444Z,11.34
2023-01-11T10:30:32.159Z,11.32
2023-01-11T10:33:37.922Z,11.44
2023-01-11T10:36:30.697Z,11.40
2023-01-11T10:39:13.846Z,11.46
2023-01-11T10:41:52.501Z,11.50
2023-01-11T10:44:23.554Z,11.62
2023-01-11T10:46:52.751Z,11.69
2023-01-11T10:49:39.587Z,11.71
2023-01-11T10:52:15.068Z,11.68
2023-01-11T10:55:00.651Z,11.73
2023-01-11T10:57:27.120Z,11.72
2023-01-11T11:07:56.747Z,11.77
2023-01-11T11:14:48.918Z,11.92
2023-01-11T11:17:44.965Z,11.96
2023-01-11T11:20:20.460Z,11.98
2023-01-11T11:22:58.994Z,12.24
2023-01-11T11:25:29.574Z,12.49
2023-01-11T11:32:03.205Z,12.71
2023-01-11T11:34:55.820Z,12.78
2023-01-11T11:37:42.517Z,12.92
2023-01-11T11:40:41.935Z,12.96
2023-01-11T13:16:14.193Z,12.58
2023-01-11T13:18:51.508Z,12.69
2023-01-11T13:21:43.386Z,12.80
2023-01-11T13:24:30.216Z,12.89
2023-01-11T13:27:06.051Z,12.88
2023-01-11T13:29:37.730Z,12.87
2023-01-11T13:32:06.616Z,12.89
2023-01-11T13:34:36.733Z,13.00
2023-01-11T13:37:06.780Z,13.14
2023-01-11T13:39:47.299Z,13.17
2023-01-11T13:42:24.970Z,13.31
2023-01-11T13:45:01.622Z,13.43
2023-01-11T13:47:31.125Z,13.45
2023-01-11T13:50:03.783Z,13.45
2023-01-11T13:52:44.187Z,13.49
2023-01-11T13:55:24.444Z,13.51
2023-01-11T13:58:00.788Z,13.47
2023-01-11T14:00:31.437Z,13.49
2023-01-11T14:03:03.284Z,13.46
2023-01-11T14:05:35.215Z,13.38
2023-01-11T14:08:08.911Z,13.35
2023-01-11T14:10:38.731Z,13.31
2023-01-11T14:13:47.571Z,13.22
2023-01-11T14:16:24.224Z,13.16
2023-01-11T14:19:01.159Z,13.17
2023-01-11T14:21:38.364Z,13.17
2023-01-11T14:24:05.794Z,13.10
2023-01-11T14:26:51.292Z,13.01
2023-01-11T14:29:36.385Z,12.99
2023-01-11T14:32:32.629Z,12.98
2023-01-11T14:35:17.586Z,12.92
2023-01-11T14:38:02.968Z,12.86
2023-01-11T14:40:38.833Z,12.79
2023-01-11T14:43:24.146Z,12.75
2023-01-11T14:46:17.271Z,12.70
2023-01-11T14:48:55.569Z,12.70
2023-01-11T14:51:32.650Z,12.69
2023-01-11T14:54:10.799Z,12.60
2023-01-11T14:56:47.158Z,12.54
2023-01-11T14:59:22.850Z,12.48
2023-01-11T15:02:04.926Z,12.44
2023-01-11T15:04:32.852Z,12.39
2023-01-11T15:07:00.341Z,12.36
2023-01-11T15:09:43.898Z,12.31
2023-01-11T15:12:14.975Z,12.21
2023-01-11T15:15:01.861Z,12.13
2023-01-11T15:17:48.196Z,12.14
2023-01-11T15:20:18.341Z,12.11
2023-01-11T15:22:45.390Z,12.11
2023-01-11T15:25:18.190Z,12.03
2023-01-11T15:27:44.999Z,11.94
2023-01-11T15:30:44.160Z,11.86
2023-01-11T15:33:17.218Z,11.85
2023-01-11T15:36:04.162Z,11.84
2023-01-11T15:38:43.251Z,11.87
2023-01-11T15:41:33.981Z,11.79
2023-01-11T15:44:03.880Z,11.71
2023-01-11T15:46:55.434Z,11.73
2023-01-11T15:49:25.025Z,11.68
2023-01-11T15:52:06.909Z,11.70
2023-01-11T15:54:36.742Z,11.71
2023-01-11T15:57:09.471Z,11.72
2023-01-11T15:59:42.070Z,11.63
2023-01-11T16:02:14.882Z,11.61
2023-01-11T16:04:58.929Z,11.64
2023-01-11T16:07:34.533Z,11.61
2023-01-11T16:10:20.109Z,11.60
2023-01-11T16:12:59.703Z,11.57
2023-01-11T16:15:41.704Z,11.57
2023-01-11T16:18:13.449Z,11.52
2023-01-11T16:20:42.858Z,11.55
2023-01-11T16:23:16.360Z,11.58
2023-01-11T16:25:43.332Z,11.60
2023-01-11T16:28:14.708Z,11.55
2023-01-11T16:30:41.337Z,11.54
2023-01-11T16:33:17.488Z,11.52
2023-01-11T16:35:44.156Z,11.50
2023-01-11T16:38:15.904Z,11.47
2023-01-11T16:40:45.529Z,11.45
2023-01-11T16:43:23.276Z,11.44
2023-01-11T16:45:51.571Z,11.42
2023-01-11T16:48:21.288Z,11.37
2023-01-11T16:50:58.073Z,11.30
2023-01-11T16:53:26.239Z,11.30
2023-01-11T16:55:56.733Z,11.32
2023-01-11T16:58:28.749Z,11.29
2023-01-11T17:00:56.860Z,11.27
2023-01-11T17:03:24.322Z,11.24
2023-01-11T17:05:55.358Z,11.24
2023-01-11T17:08:26.431Z,11.21
2023-01-11T17:10:54.135Z,11.17
2023-01-11T17:13:48.057Z,11.11
2023-01-11T17:16:16.234Z,11.05
2023-01-11T17:18:43.695Z,11.01
2023-01-11T17:21:19.312Z,10.97
2023-01-11T17:23:46.700Z,10.96
2023-01-11T17:26:16.052Z,10.96
2023-01-11T17:28:47.259Z,10.95
2023-01-11T17:31:35.689Z,10.91
2023-01-11T17:34:08.522Z,10.90
2023-01-11T17:36:36.300Z,10.79
2023-01-11T17:39:03.639Z,10.69
2023-01-11T17:41:48.767Z,10.67
2023-01-11T17:44:35.614Z,10.61
2023-01-11T17:47:03.024Z,10.52
2023-01-11T17:49:31.242Z,10.46
2023-01-11T17:52:07.307Z,10.44
2023-01-11T17:54:33.915Z,10.40
2023-01-11T17:57:01.125Z,10.36
2023-01-11T17:59:30.915Z,10.39
2023-01-11T18:02:18.095Z,10.46
2023-01-11T18:04:44.731Z,10.44
2023-01-11T18:07:20.121Z,10.41
2023-01-11T18:09:48.259Z,10.34
2023-01-11T18:12:18.323Z,10.32
2023-01-11T18:15:15.209Z,10.28
2023-01-11T18:17:45.117Z,10.24
2023-01-11T18:20:18.332Z,10.15
2023-01-11T18:22:55.174Z,10.10
2023-01-11T18:25:24.922Z,10.07
2023-01-11T18:27:54.418Z,10.01
2023-01-11T18:30:30.242Z,9.99
2023-01-11T18:32:57.437Z,10.00
2023-01-11T18:35:24.657Z,10.06
2023-01-11T18:37:54.952Z,10.13
2023-01-11T18:40:21.833Z,10.11
2023-01-11T18:42:49.948Z,10.18
2023-01-11T18:45:19.143Z,10.16
2023-01-11T18:47:45.751Z,10.08
2023-01-11T18:50:13.260Z,10.03
2023-01-11T18:52:40.256Z,10.05
2023-01-11T18:55:07.243Z,10.01
2023-01-11T18:57:33.939Z,9.98
2023-01-11T19:00:04.390Z,9.93
2023-01-11T19:02:37.547Z,9.95
2023-01-11T19:05:05.930Z,9.94
2023-01-11T19:07:32.602Z,9.99
2023-01-11T19:09:59.445Z,10.01
2023-01-11T19:12:26.026Z,9.98
2023-01-11T19:14:52.677Z,9.99
2023-01-11T19:17:19.284Z,9.93
2023-01-11T19:19:46.261Z,10.04
2023-01-11T19:22:12.955Z,10.11
2023-01-11T19:24:40.105Z,10.15
2023-01-11T19:27:06.870Z,10.20
2023-01-11T19:29:33.783Z,10.26
2023-01-11T19:32:00.269Z,10.39
2023-01-11T19:34:26.895Z,10.55
2023-01-11T19:36:53.473Z,10.66
2023-01-11T19:39:20.068Z,10.74
2023-01-11T19:42:00.143Z,10.75
2023-01-11T19:44:33.691Z,10.79
2023-01-11T19:47:10.791Z,10.82
2023-01-11T19:49:38.739Z,10.81
2023-01-11T19:52:12.034Z,10.77
2023-01-11T19:54:39.776Z,10.75
2023-01-11T19:57:08.004Z,10.80
2023-01-11T19:59:34.573Z,10.78
2023-01-11T20:02:01.225Z,10.75
2023-01-11T20:04:27.854Z,10.71
2023-01-11T20:06:55.500Z,10.68
2023-01-11T20:09:22.456Z,10.66
2023-01-11T20:11:49.384Z,10.50
2023-01-11T20:14:16.839Z,10.36
2023-01-11T20:16:43.364Z,10.31
2023-01-11T20:19:09.900Z,10.30
2023-01-11T20:21:38.703Z,10.30
2023-01-11T20:24:08.130Z,10.34
2023-01-11T20:26:34.998Z,10.33
2023-01-11T20:29:02.181Z,10.28
2023-01-11T20:31:31.709Z,10.15
2023-01-11T20:33:59.958Z,10.00
2023-01-11T20:36:27.216Z,9.81
2023-01-11T20:38:54.522Z,9.64
2023-01-11T20:41:40.997Z,9.59
2023-01-11T20:44:08.016Z,9.55
2023-01-11T20:46:34.992Z,9.54
2023-01-11T20:49:01.837Z,9.55
2023-01-11T20:51:28.447Z,9.53
2023-01-11T20:53:55.135Z,9.49
2023-01-11T20:56:21.879Z,9.44
2023-01-11T20:58:50.972Z,9.44
2023-01-11T21:01:27.214Z,9.37
2023-01-11T21:03:54.893Z,9.37
2023-01-11T21:06:22.356Z,9.39
2023-01-11T21:08:48.886Z,9.41
2023-01-11T21:11:15.930Z,9.44
2023-01-11T21:13:42.426Z,9.38
2023-01-11T21:16:11.923Z,9.32
2023-01-11T21:18:39.408Z,9.27
2023-01-11T21:21:06.064Z,9.27
2023-01-11T21:23:32.503Z,9.24
2023-01-11T21:25:59.094Z,9.24
2023-01-11T21:28:25.585Z,9.27
2023-01-11T21:31:02.239Z,9.27
2023-01-11T21:33:29.629Z,9.23
2023-01-11T21:35:57.511Z,9.22
2023-01-11T21:38:24.214Z,9.23
2023-01-11T21:40:50.695Z,9.29
2023-01-11T21:43:17.288Z,9.31
2023-01-11T21:45:43.926Z,9.40
2023-01-11T21:48:10.494Z,9.40
2023-01-11T21:50:37.038Z,9.42
2023-01-11T21:53:03.546Z,9.39
2023-01-11T21:55:30.010Z,9.40
2023-01-11T21:57:56.564Z,9.37
2023-01-11T22:00:28.249Z,9.31
2023-01-11T22:02:56.291Z,9.27
2023-01-11T22:05:23.672Z,9.23
2023-01-11T22:07:50.633Z,9.20
2023-01-11T22:10:17.159Z,9.13
2023-01-11T22:12:43.727Z,9.16
2023-01-11T22:15:10.357Z,9.24
2023-01-11T22:17:36.833Z,9.27
2023-01-11T22:20:03.683Z,9.27
2023-01-11T22:22:30.239Z,9.29
2023-01-11T22:24:56.760Z,9.29
2023-01-11T22:27:23.276Z,9.29
2023-01-11T22:29:52.027Z,9.38
2023-01-11T22:32:18.522Z,9.55
2023-01-11T22:34:45.138Z,9.67
2023-01-11T22:37:11.796Z,9.75
2023-01-11T22:39:40.540Z,9.83
2023-01-11T22:42:07.643Z,9.83
2023-01-11T22:44:34.293Z,9.75
2023-01-11T22:47:00.801Z,9.67
2023-01-11T22:49:27.474Z,9.58
2023-01-11T22:51:56.314Z,9.48
2023-01-11T22:54:23.090Z,9.40
2023-01-11T22:56:50.222Z,9.33
2023-01-11T22:59:16.742Z,9.29
2023-01-11T23:01:43.359Z,9.26
2023-01-11T23:04:12.367Z,9.24
2023-01-11T23:06:39.873Z,9.32
2023-01-11T23:09:07.426Z,9.33
2023-01-11T23:11:56.211Z,9.28
2023-01-11T23:14:26.642Z,9.18
2023-01-11T23:16:53.835Z,9.17
2023-01-11T23:19:23.231Z,9.14
2023-01-11T23:21:50.103Z,9.15
2023-01-11T23:24:17.299Z,9.21
2023-01-11T23:26:45.140Z,9.25
2023-01-11T23:29:12.118Z,9.33
2023-01-11T23:31:38.806Z,9.35
2023-01-11T23:34:08.082Z,9.32
2023-01-11T23:36:35.771Z,9.31
2023-01-11T23:39:08.681Z,9.31
2023-01-11T23:41:53.965Z,9.32
2023-01-11T23:44:20.539Z,9.32
2023-01-11T23:47:05.951Z,9.30
2023-01-11T23:49:32.460Z,9.28
2023-01-11T23:51:59.453Z,9.38
2023-01-11T23:54:27.457Z,9.41
2023-01-11T23:56:54.518Z,9.46
2023-01-11T23:59:21.147Z,9.52
